Time;durP1;ratioP1;P1;durP2;ratioP2;P2;SDS_P1;SDS_P2;PMS_P1;PMS_P2;Temp;Humidity;BMP_temperature;BMP_pressure;BME280_temperature;BME280_humidity;BME280_pressure;Samples;Min_cycle;Max_cycle;Signal;HPM_P1;HPM_P2
2022/09/29 00:01:44;;;;;;;21.02;16.63;;;9.00;99.90;;;;;;5055725;28;20224;-78
2022/09/29 00:04:11;;;;;;;21.25;15.32;;;9.00;99.90;;;;;;5065282;28;20208;-79
2022/09/29 00:06:38;;;;;;;22.40;17.13;;;8.90;99.90;;;;;;5045620;28;20205;-78
2022/09/29 00:09:05;;;;;;;21.98;17.15;;;8.80;99.90;;;;;;5051995;28;20239;-78
2022/09/29 00:11:33;;;;;;;21.00;16.75;;;8.80;99.90;;;;;;5049350;28;20294;-78
2022/09/29 00:14:02;;;;;;;24.42;16.50;;;8.70;99.90;;;;;;5047463;28;20378;-79
2022/09/29 00:16:29;;;;;;;25.55;17.45;;;8.70;99.90;;;;;;5047479;28;20305;-77
2022/09/29 00:18:56;;;;;;;26.50;17.33;;;8.60;99.90;;;;;;5039877;28;20251;-79
2022/09/29 00:21:23;;;;;;;28.13;18.92;;;8.60;99.90;;;;;;5044408;28;20302;-80
2022/09/29 00:23:50;;;;;;;22.88;16.75;;;8.50;99.90;;;;;;5044626;28;20519;-77
2022/09/29 00:26:21;;;;;;;25.77;16.63;;;8.50;99.90;;;;;;5045734;28;20279;-78
2022/09/29 00:28:51;;;;;;;27.73;18.35;;;8.50;99.90;;;;;;5044294;28;20307;-78
2022/09/29 00:31:20;;;;;;;24.95;18.52;;;8.40;99.90;;;;;;5041167;28;20202;-79
2022/09/29 00:33:47;;;;;;;25.75;18.83;;;8.40;99.90;;;;;;5041171;28;20211;-78
2022/09/29 00:36:16;;;;;;;22.77;17.00;;;8.40;99.90;;;;;;5044473;28;20284;-78
2022/09/29 00:38:44;;;;;;;23.75;18.45;;;8.40;99.90;;;;;;5047043;28;20294;-80
2022/09/29 00:41:16;;;;;;;30.40;20.63;;;8.30;99.90;;;;;;5040755;28;20200;-78
2022/09/29 00:43:54;;;;;;;29.13;18.30;;;8.30;99.90;;;;;;5049677;28;20307;-79
2022/09/29 00:46:32;;;;;;;24.25;18.25;;;8.40;99.90;;;;;;5057478;28;20258;-79
2022/09/29 00:49:05;;;;;;;29.05;18.75;;;8.40;99.90;;;;;;5044383;28;20192;-80
2022/09/29 00:51:35;;;;;;;26.05;18.55;;;8.30;99.90;;;;;;5050738;28;20231;-79
2022/09/29 00:54:03;;;;;;;24.83;18.25;;;8.40;99.90;;;;;;5046523;28;20609;-79
2022/09/29 00:56:31;;;;;;;27.70;19.27;;;8.30;99.90;;;;;;5040976;28;20227;-79
2022/09/29 00:59:02;;;;;;;24.33;17.67;;;8.30;99.90;;;;;;5043864;28;20233;-79
2022/09/29 01:01:32;;;;;;;29.65;19.50;;;8.20;99.90;;;;;;5044258;28;20300;-78
2022/09/29 01:04:03;;;;;;;26.90;18.42;;;8.20;99.90;;;;;;5046503;28;20258;-77
2022/09/29 01:06:35;;;;;;;23.75;18.75;;;8.10;99.90;;;;;;5042574;28;20238;-79
2022/09/29 01:09:05;;;;;;;31.13;20.77;;;8.10;99.90;;;;;;5048485;28;20645;-79
2022/09/29 01:11:32;;;;;;;28.75;19.40;;;8.00;99.90;;;;;;5051390;28;20575;-78
2022/09/29 01:14:04;;;;;;;28.65;18.38;;;8.00;99.90;;;;;;5050013;28;20214;-78
2022/09/29 01:16:33;;;;;;;26.13;18.67;;;8.00;99.90;;;;;;5049664;28;20220;-78
2022/09/29 01:19:02;;;;;;;28.67;19.60;;;8.00;99.90;;;;;;5042531;28;20203;-77
2022/09/29 01:21:40;;;;;;;31.17;20.73;;;8.00;99.90;;;;;;5049993;28;20208;-79
2022/09/29 01:24:28;;;;;;;27.58;19.45;;;8.00;99.90;;;;;;5040837;28;20228;-78
2022/09/29 01:27:11;;;;;;;34.05;20.52;;;8.00;99.90;;;;;;5053881;28;20258;-78
2022/09/29 01:30:01;;;;;;;33.42;21.73;;;7.90;99.90;;;;;;5022161;28;20202;-79
2022/09/29 01:32:40;;;;;;;30.90;22.48;;;7.90;99.90;;;;;;5049937;28;20234;-78
2022/09/29 01:35:14;;;;;;;29.98;21.85;;;7.80;99.90;;;;;;5050973;28;20293;-79
2022/09/29 01:37:53;;;;;;;28.88;20.27;;;7.80;99.90;;;;;;5043357;28;20338;-79
2022/09/29 01:40:29;;;;;;;30.00;22.05;;;7.80;99.90;;;;;;5051509;28;20231;-79
2022/09/29 01:43:05;;;;;;;28.20;21.20;;;7.70;99.90;;;;;;5031733;28;20289;-78
2022/09/29 01:45:34;;;;;;;34.45;21.23;;;7.70;99.90;;;;;;5040078;28;20201;-78
2022/09/29 01:48:07;;;;;;;34.55;21.15;;;7.70;99.90;;;;;;5044224;28;20314;-78
2022/09/29 01:50:39;;;;;;;27.73;20.08;;;7.60;99.90;;;;;;5056251;28;20235;-78
2022/09/29 01:53:11;;;;;;;36.85;24.13;;;7.70;99.90;;;;;;5058014;28;20577;-79
2022/09/29 01:55:44;;;;;;;34.72;22.98;;;7.60;99.90;;;;;;5064715;28;20200;-79
2022/09/29 01:58:17;;;;;;;40.45;23.42;;;7.70;99.90;;;;;;5067001;28;20247;-78
2022/09/29 02:00:51;;;;;;;36.03;23.92;;;7.70;99.90;;;;;;5056397;28;20227;-79
2022/09/29 02:03:24;;;;;;;35.20;22.30;;;7.60;99.90;;;;;;5046158;28;20204;-78
2022/09/29 02:05:54;;;;;;;43.10;24.17;;;7.60;99.90;;;;;;5033600;28;20217;-77
2022/09/29 02:08:31;;;;;;;33.88;21.70;;;7.60;99.90;;;;;;5041302;28;20310;-79
2022/09/29 02:11:02;;;;;;;32.03;23.38;;;7.60;99.90;;;;;;5035940;28;20192;-79
2022/09/29 02:13:35;;;;;;;36.67;23.88;;;7.60;99.90;;;;;;5038226;28;20211;-79
2022/09/29 02:16:03;;;;;;;36.67;22.42;;;7.70;99.90;;;;;;5047813;28;20659;-79
2022/09/29 02:18:37;;;;;;;30.70;24.00;;;7.60;99.90;;;;;;5042595;28;20249;-79
2022/09/29 02:21:04;;;;;;;33.25;22.02;;;7.60;99.90;;;;;;5024879;28;20647;-78
2022/09/29 02:23:31;;;;;;;33.72;24.15;;;7.60;99.90;;;;;;5047493;28;20231;-79
2022/09/29 02:26:00;;;;;;;34.50;24.48;;;7.60;99.90;;;;;;5040876;28;20291;-79
2022/09/29 02:28:28;;;;;;;37.70;22.02;;;7.60;99.90;;;;;;5041542;28;20326;-78
2022/09/29 02:30:56;;;;;;;32.15;22.52;;;7.60;99.90;;;;;;5047215;28;20286;-79
2022/09/29 02:33:24;;;;;;;30.35;22.38;;;7.60;99.90;;;;;;5068008;28;20199;-79
2022/09/29 02:36:04;;;;;;;37.35;24.02;;;7.60;99.90;;;;;;5051676;28;20238;-78
2022/09/29 02:38:44;;;;;;;37.15;25.15;;;7.50;99.90;;;;;;5053298;28;20768;-78
2022/09/29 02:41:26;;;;;;;33.38;23.40;;;7.50;99.90;;;;;;5050273;28;20676;-79
2022/09/29 02:44:19;;;;;;;33.75;22.45;;;7.50;99.90;;;;;;5045668;28;20211;-79
2022/09/29 02:46:59;;;;;;;35.55;23.77;;;7.50;99.90;;;;;;5035479;28;20574;-79
2022/09/29 02:49:38;;;;;;;34.63;22.25;;;7.50;99.90;;;;;;5029887;28;20609;-78
2022/09/29 02:52:18;;;;;;;35.35;23.88;;;7.40;99.90;;;;;;5025213;28;20584;-80
2022/09/29 02:55:00;;;;;;;35.00;23.85;;;7.50;99.90;;;;;;5030671;28;20236;-78
2022/09/29 02:57:34;;;;;;;36.53;23.63;;;7.50;99.90;;;;;;5050857;28;20297;-80
2022/09/29 03:00:08;;;;;;;37.90;23.90;;;7.60;99.90;;;;;;5042219;28;20683;-79
2022/09/29 03:02:37;;;;;;;34.35;23.45;;;7.50;99.90;;;;;;5035857;28;20210;-78
2022/09/29 03:05:05;;;;;;;32.95;21.25;;;7.40;99.90;;;;;;5052552;28;20272;-77
2022/09/29 03:07:33;;;;;;;33.55;24.40;;;7.40;99.90;;;;;;5045082;28;20250;-80
2022/09/29 03:10:01;;;;;;;34.10;24.55;;;7.40;99.90;;;;;;5046734;28;20681;-77
2022/09/29 03:12:28;;;;;;;35.72;25.48;;;7.40;99.90;;;;;;5048195;28;20289;-77
2022/09/29 03:14:56;;;;;;;36.72;22.77;;;7.40;99.90;;;;;;5055780;28;20206;-78
2022/09/29 03:17:22;;;;;;;30.80;23.08;;;7.50;99.90;;;;;;5063383;28;20222;-80
2022/09/29 03:19:49;;;;;;;29.27;22.38;;;7.50;99.90;;;;;;5063578;28;20250;-78
2022/09/29 03:22:17;;;;;;;41.55;26.65;;;7.50;99.90;;;;;;5066542;28;20226;-79
2022/09/29 03:24:46;;;;;;;38.85;24.50;;;7.40;99.90;;;;;;5070755;28;20228;-77
2022/09/29 03:27:15;;;;;;;34.72;25.08;;;7.40;99.90;;;;;;5064238;28;20246;-79
2022/09/29 03:29:42;;;;;;;47.13;25.73;;;7.30;99.90;;;;;;5047729;28;20868;-79
2022/09/29 03:32:09;;;;;;;39.53;25.67;;;7.30;99.90;;;;;;5045589;28;20261;-79
2022/09/29 03:34:36;;;;;;;33.28;21.95;;;7.30;99.90;;;;;;5046853;28;20207;-80
2022/09/29 03:37:03;;;;;;;34.20;25.23;;;7.20;99.90;;;;;;5055429;28;20298;-78
2022/09/29 03:39:30;;;;;;;39.88;28.20;;;7.20;99.90;;;;;;5049120;28;20276;-79
2022/09/29 03:41:59;;;;;;;37.63;26.05;;;7.20;99.90;;;;;;5055343;28;20304;-77
2022/09/29 03:44:26;;;;;;;37.42;24.95;;;7.20;99.90;;;;;;5054923;28;20246;-79
2022/09/29 03:46:53;;;;;;;34.75;24.38;;;7.10;99.90;;;;;;5044160;28;20196;-80
2022/09/29 03:49:19;;;;;;;35.63;24.50;;;7.20;99.90;;;;;;5045040;28;20286;-79
2022/09/29 03:51:47;;;;;;;39.33;25.48;;;7.20;99.90;;;;;;5035848;28;20226;-78
2022/09/29 03:54:13;;;;;;;37.88;25.50;;;7.10;99.90;;;;;;5036523;28;20580;-77
2022/09/29 03:56:40;;;;;;;41.60;26.65;;;7.10;99.90;;;;;;5037426;28;20246;-79
2022/09/29 03:59:10;;;;;;;49.30;27.05;;;7.10;99.90;;;;;;5036704;28;20298;-77
2022/09/29 04:01:38;;;;;;;32.30;23.23;;;7.10;99.90;;;;;;5039683;28;20206;-78
2022/09/29 04:04:05;;;;;;;32.83;24.42;;;7.20;99.90;;;;;;5041354;28;20203;-79
2022/09/29 04:06:32;;;;;;;41.33;25.23;;;7.20;99.90;;;;;;5049116;28;20271;-81
2022/09/29 04:08:59;;;;;;;37.72;24.92;;;7.20;99.90;;;;;;5047484;28;20281;-81
2022/09/29 04:11:27;;;;;;;42.10;27.67;;;7.20;99.90;;;;;;5041058;28;20203;-79
2022/09/29 04:13:54;;;;;;;36.50;26.85;;;7.20;99.90;;;;;;5040553;28;20195;-77
2022/09/29 04:16:23;;;;;;;41.40;25.35;;;7.10;99.90;;;;;;5052251;28;20646;-79
2022/09/29 04:18:49;;;;;;;37.45;25.92;;;7.20;99.90;;;;;;5056708;28;20250;-81
2022/09/29 04:21:16;;;;;;;44.50;30.05;;;7.20;99.90;;;;;;5067088;28;20213;-78
2022/09/29 04:23:45;;;;;;;36.17;24.55;;;7.20;99.90;;;;;;5054624;28;20492;-78
2022/09/29 04:26:12;;;;;;;33.70;26.25;;;7.10;99.90;;;;;;5050177;28;20228;-78
2022/09/29 04:28:39;;;;;;;32.00;24.85;;;7.00;99.90;;;;;;5039887;28;20250;-78
2022/09/29 04:31:07;;;;;;;35.40;26.05;;;7.10;99.90;;;;;;5038612;28;20237;-79
2022/09/29 04:33:42;;;;;;;38.85;26.83;;;7.10;99.90;;;;;;5037798;28;20279;-81
2022/09/29 04:36:09;;;;;;;37.97;27.30;;;7.10;99.90;;;;;;5056932;28;20229;-80
2022/09/29 04:38:36;;;;;;;29.77;24.52;;;7.10;99.90;;;;;;5043869;28;20226;-80
2022/09/29 04:41:03;;;;;;;38.28;25.63;;;7.10;99.90;;;;;;5043655;28;20210;-80
2022/09/29 04:43:30;;;;;;;43.95;27.20;;;7.20;99.90;;;;;;5054618;28;20202;-79
2022/09/29 04:46:03;;;;;;;39.67;27.88;;;7.10;99.90;;;;;;5053677;28;20210;-78
2022/09/29 04:48:30;;;;;;;38.72;26.42;;;7.10;99.90;;;;;;5059079;28;20275;-77
2022/09/29 04:50:58;;;;;;;38.30;26.48;;;7.10;99.90;;;;;;5056112;28;20207;-80
2022/09/29 04:53:25;;;;;;;39.35;27.00;;;7.20;99.90;;;;;;5056704;28;20237;-79
2022/09/29 04:55:52;;;;;;;33.08;24.35;;;7.20;99.90;;;;;;5048858;28;20229;-77
2022/09/29 04:58:19;;;;;;;44.65;29.65;;;7.30;99.90;;;;;;5044998;28;20318;-81
2022/09/29 05:00:48;;;;;;;34.22;26.30;;;7.30;99.90;;;;;;5038210;28;20242;-78
2022/09/29 05:03:15;;;;;;;42.15;26.60;;;7.30;99.90;;;;;;5044275;28;20201;-77
2022/09/29 05:05:42;;;;;;;33.78;25.25;;;7.20;99.90;;;;;;5050051;28;20207;-80
2022/09/29 05:08:10;;;;;;;39.45;27.05;;;7.20;99.90;;;;;;5043390;28;20229;-80
2022/09/29 05:10:41;;;;;;;44.60;29.52;;;7.20;99.90;;;;;;5044523;28;20207;-78
2022/09/29 05:13:09;;;;;;;31.10;24.98;;;7.20;99.90;;;;;;5044462;28;20233;-81
2022/09/29 05:15:44;;;;;;;34.22;26.48;;;7.20;99.90;;;;;;5048762;28;20225;-81
2022/09/29 05:18:11;;;;;;;44.78;28.08;;;7.20;99.90;;;;;;5040956;28;20266;-80
2022/09/29 05:20:38;;;;;;;40.38;27.67;;;7.10;99.90;;;;;;5051172;28;20242;-81
2022/09/29 05:23:08;;;;;;;44.33;29.42;;;7.20;99.90;;;;;;5054650;28;20195;-80
2022/09/29 05:25:49;;;;;;;43.40;29.17;;;7.20;99.90;;;;;;5054515;28;20562;-79
2022/09/29 05:28:16;;;;;;;33.67;22.98;;;7.20;99.90;;;;;;5046375;28;20218;-80
2022/09/29 05:30:45;;;;;;;41.25;29.30;;;7.20;99.90;;;;;;5045364;28;20227;-80
2022/09/29 05:33:12;;;;;;;46.15;30.63;;;7.20;99.90;;;;;;5049647;28;20291;-80
2022/09/29 05:35:39;;;;;;;34.78;26.20;;;7.20;99.90;;;;;;5045610;28;20206;-79
2022/09/29 05:38:06;;;;;;;43.30;28.40;;;7.30;99.90;;;;;;5042123;28;20254;-81
2022/09/29 05:40:37;;;;;;;35.80;24.50;;;7.20;99.90;;;;;;5045681;28;20674;-80
2022/09/29 05:43:05;;;;;;;38.60;28.45;;;7.30;99.90;;;;;;5042915;28;20206;-78
2022/09/29 05:45:32;;;;;;;35.88;28.17;;;7.30;99.90;;;;;;5049369;28;20206;-78
2022/09/29 05:47:59;;;;;;;38.00;27.40;;;7.30;99.90;;;;;;5046389;28;20226;-80
2022/09/29 05:50:26;;;;;;;35.08;26.70;;;7.20;99.90;;;;;;5049442;28;20293;-78
2022/09/29 05:52:53;;;;;;;37.65;27.55;;;7.30;99.90;;;;;;5052428;28;20234;-80
2022/09/29 05:55:22;;;;;;;36.17;26.90;;;7.30;99.90;;;;;;5063971;28;20202;-79
2022/09/29 05:57:50;;;;;;;38.13;27.65;;;7.40;99.90;;;;;;5044931;28;20258;-73
2022/09/29 06:00:19;;;;;;;37.58;27.95;;;7.50;99.90;;;;;;5053639;28;20262;-76
2022/09/29 06:02:46;;;;;;;38.65;27.27;;;7.50;99.90;;;;;;5043823;28;20789;-73
2022/09/29 06:05:14;;;;;;;36.65;25.73;;;7.60;99.90;;;;;;5053953;28;20283;-73
2022/09/29 06:07:42;;;;;;;34.92;27.15;;;7.60;99.90;;;;;;5053350;28;20219;-73
2022/09/29 06:10:10;;;;;;;39.10;27.65;;;7.70;99.90;;;;;;5047615;28;20207;-75
2022/09/29 06:12:38;;;;;;;35.85;27.48;;;7.70;99.90;;;;;;5047952;28;20225;-76
2022/09/29 06:15:06;;;;;;;36.80;26.35;;;7.80;99.90;;;;;;5042488;28;20238;-78
2022/09/29 06:17:34;;;;;;;42.20;28.80;;;8.00;99.90;;;;;;5042043;28;20324;-74
2022/09/29 06:20:02;;;;;;;33.70;26.10;;;8.10;99.90;;;;;;5048775;28;20641;-78
2022/09/29 06:22:29;;;;;;;36.05;25.63;;;8.20;99.90;;;;;;5044038;28;20214;-76
2022/09/29 06:24:56;;;;;;;33.25;25.50;;;8.30;99.90;;;;;;5046489;28;20195;-73
2022/09/29 06:27:23;;;;;;;31.67;25.58;;;8.40;99.90;;;;;;5040929;28;20226;-79
2022/09/29 06:29:50;;;;;;;29.65;22.23;;;8.60;99.90;;;;;;5046610;28;20662;-75
2022/09/29 06:32:17;;;;;;;26.10;20.88;;;8.80;99.90;;;;;;5046558;28;20200;-76
2022/09/29 06:37:36;;;;;;;23.00;19.73;;;9.40;99.90;;;;;;5043804;28;20337;-75
2022/09/29 06:40:05;;;;;;;25.40;21.40;;;9.70;99.90;;;;;;5046134;28;20209;-78
2022/09/29 06:42:32;;;;;;;27.70;22.27;;;9.70;99.90;;;;;;5041279;28;20258;-75
2022/09/29 06:44:59;;;;;;;29.60;23.48;;;9.80;99.90;;;;;;5050783;28;20283;-75
2022/09/29 06:47:27;;;;;;;27.40;21.27;;;9.90;99.90;;;;;;5045623;28;20307;-76
2022/09/29 06:49:55;;;;;;;25.65;21.30;;;10.10;99.90;;;;;;5041910;28;20204;-75
2022/09/29 06:52:22;;;;;;;24.02;19.95;;;10.50;99.90;;;;;;5043728;28;20190;-82
2022/09/29 06:54:49;;;;;;;21.13;18.15;;;10.80;99.90;;;;;;5050690;28;20194;-79
2022/09/29 06:57:17;;;;;;;22.10;18.05;;;11.40;99.90;;;;;;5048945;28;20317;-76
2022/09/29 06:59:44;;;;;;;25.40;19.83;;;11.60;99.90;;;;;;5039758;28;20230;-77
2022/09/29 07:02:12;;;;;;;33.15;21.83;;;11.80;99.90;;;;;;5046426;28;20290;-76
2022/09/29 07:04:39;;;;;;;30.60;22.88;;;11.70;99.90;;;;;;5047602;28;20722;-75
2022/09/29 07:07:08;;;;;;;32.58;23.08;;;11.20;99.90;;;;;;5040854;28;20900;-75
2022/09/29 07:09:37;;;;;;;31.60;23.00;;;11.10;99.90;;;;;;5051955;28;20224;-78
2022/09/29 07:12:04;;;;;;;29.23;21.27;;;11.30;99.90;;;;;;5050033;28;20266;-77
2022/09/29 07:14:31;;;;;;;29.23;21.98;;;11.60;99.90;;;;;;5050931;28;20279;-74
2022/09/29 07:16:59;;;;;;;20.95;17.38;;;12.10;99.90;;;;;;5045028;28;20225;-75
2022/09/29 07:19:27;;;;;;;26.25;18.63;;;12.70;99.90;;;;;;5047328;28;20346;-76
2022/09/29 07:21:54;;;;;;;21.88;18.73;;;13.40;99.90;;;;;;5043605;28;20231;-77
2022/09/29 07:24:26;;;;;;;23.80;17.73;;;14.10;99.90;;;;;;5052739;28;20228;-75
2022/09/29 07:26:52;;;;;;;19.93;17.53;;;14.80;99.90;;;;;;5052191;28;20296;-76
2022/09/29 07:29:21;;;;;;;19.10;17.10;;;15.20;99.90;;;;;;5048163;28;20461;-76
2022/09/29 07:31:51;;;;;;;19.60;17.07;;;16.00;99.90;;;;;;5043791;28;20488;-78
2022/09/29 07:34:18;;;;;;;19.27;17.20;;;16.70;99.90;;;;;;5045199;28;20442;-74
2022/09/29 07:36:45;;;;;;;19.67;17.57;;;17.30;99.90;;;;;;5054980;28;20549;-77
2022/09/29 07:39:14;;;;;;;20.00;17.93;;;17.80;99.70;;;;;;5060835;28;20505;-76
2022/09/29 07:41:43;;;;;;;19.60;17.50;;;18.20;97.80;;;;;;5049294;28;20447;-76
2022/09/29 07:44:10;;;;;;;25.53;20.03;;;18.30;97.10;;;;;;5056093;28;20461;-77
2022/09/29 07:46:37;;;;;;;19.17;17.17;;;18.20;95.40;;;;;;5046300;28;20500;-75
2022/09/29 07:49:04;;;;;;;19.07;16.93;;;18.50;96.50;;;;;;5049520;28;20443;-75
2022/09/29 07:51:31;;;;;;;20.93;18.73;;;18.60;95.70;;;;;;5051429;28;20434;-75
2022/09/29 07:54:02;;;;;;;23.60;21.13;;;18.10;95.30;;;;;;5057427;28;20493;-75
2022/09/29 07:56:30;;;;;;;20.90;18.03;;;17.80;95.80;;;;;;5045551;28;20454;-77
2022/09/29 07:58:58;;;;;;;24.30;18.50;;;17.10;97.20;;;;;;5052534;28;20489;-78
2022/09/29 08:01:25;;;;;;;18.57;16.73;;;17.20;98.40;;;;;;5039958;28;20862;-76
2022/09/29 08:03:54;;;;;;;21.47;19.27;;;17.50;98.20;;;;;;5038203;28;20811;-77
2022/09/29 08:06:22;;;;;;;21.87;19.63;;;17.50;98.00;;;;;;5044023;28;20434;-74
2022/09/29 08:08:49;;;;;;;23.90;21.40;;;17.50;97.40;;;;;;5044163;28;20454;-77
2022/09/29 08:11:19;;;;;;;29.40;23.50;;;16.70;98.10;;;;;;5039471;28;21213;-75
2022/09/29 08:13:47;;;;;;;25.53;22.83;;;15.70;99.90;;;;;;5037550;28;20442;-75
2022/09/29 08:16:15;;;;;;;24.50;20.90;;;15.60;99.90;;;;;;5040258;28;20572;-77
2022/09/29 08:18:44;;;;;;;24.93;22.33;;;15.90;99.90;;;;;;5051595;28;20240;-75
2022/09/29 08:21:13;;;;;;;22.17;19.95;;;16.00;99.90;;;;;;5060215;28;20448;-76
2022/09/29 08:23:41;;;;;;;24.80;20.40;;;15.70;99.90;;;;;;5065051;28;20217;-74
2022/09/29 08:26:10;;;;;;;22.90;20.63;;;16.20;99.90;;;;;;5068467;28;20241;-73
2022/09/29 08:28:38;;;;;;;19.50;16.23;;;16.60;99.90;;;;;;5058190;28;20810;-78
2022/09/29 08:31:07;;;;;;;24.03;19.37;;;17.50;99.90;;;;;;5048596;28;20473;-78
2022/09/29 08:33:36;;;;;;;22.20;19.90;;;17.50;98.90;;;;;;5039553;28;20457;-78
2022/09/29 08:36:13;;;;;;;25.00;22.30;;;17.80;99.20;;;;;;5043616;28;20532;-76
2022/09/29 08:38:41;;;;;;;23.10;19.70;;;18.40;98.30;;;;;;5047598;28;20554;-75
2022/09/29 08:41:24;;;;;;;23.60;21.10;;;19.10;96.80;;;;;;5053020;28;20529;-73
2022/09/29 08:43:57;;;;;;;25.80;22.00;;;18.80;95.90;;;;;;5044066;28;20483;-75
2022/09/29 08:46:28;;;;;;;29.00;24.33;;;18.40;96.50;;;;;;5038059;28;20511;-77
2022/09/29 08:48:59;;;;;;;26.03;20.70;;;17.90;98.10;;;;;;5036144;28;20467;-77
2022/09/29 08:51:32;;;;;;;22.00;19.60;;;18.00;98.40;;;;;;5037549;28;20485;-77
2022/09/29 08:54:08;;;;;;;19.53;17.53;;;18.30;97.70;;;;;;5036902;28;20831;-75
2022/09/29 08:56:35;;;;;;;20.03;17.63;;;18.60;97.20;;;;;;5045462;28;20446;-78
2022/09/29 08:59:02;;;;;;;19.73;17.53;;;18.70;96.30;;;;;;5037205;28;20535;-77
2022/09/29 09:01:35;;;;;;;20.80;18.70;;;18.90;96.10;;;;;;5048387;28;21002;-79
2022/09/29 09:04:43;;;;;;;20.47;18.03;;;18.80;96.20;;;;;;5036449;28;20531;-79
2022/09/29 09:07:17;;;;;;;20.27;18.07;;;19.10;95.70;;;;;;4971037;28;20836;-75
2022/09/29 09:10:03;;;;;;;19.87;17.37;;;20.30;95.10;;;;;;4956318;28;20450;-78
2022/09/29 09:12:46;;;;;;;20.40;18.30;;;20.90;92.40;;;;;;5013952;28;20987;-76
2022/09/29 09:15:46;;;;;;;18.67;16.67;;;19.50;93.10;;;;;;5039917;28;20489;-80
2022/09/29 09:18:43;;;;;;;17.80;15.90;;;19.50;94.30;;;;;;5028468;28;20519;-76
2022/09/29 09:21:18;;;;;;;19.30;17.30;;;19.80;93.50;;;;;;5048022;28;20475;-77
2022/09/29 09:23:55;;;;;;;18.10;16.30;;;19.60;93.90;;;;;;5040727;28;20486;-78
2022/09/29 09:26:37;;;;;;;18.83;16.83;;;19.20;94.70;;;;;;5046845;28;20450;-76
2022/09/29 09:29:09;;;;;;;20.47;15.80;;;19.50;94.80;;;;;;5036154;28;20444;-75
2022/09/29 09:32:04;;;;;;;18.17;16.27;;;19.50;94.40;;;;;;5052270;28;20466;-76
2022/09/29 09:34:36;;;;;;;17.70;16.00;;;19.40;95.00;;;;;;5053927;28;20998;-76
2022/09/29 09:37:12;;;;;;;21.20;15.33;;;19.50;95.30;;;;;;5053337;28;20639;-74
2022/09/29 09:40:05;;;;;;;19.93;16.20;;;19.30;95.10;;;;;;5056513;28;20512;-75
2022/09/29 09:42:36;;;;;;;16.30;14.70;;;19.10;95.40;;;;;;5034056;28;20442;-76
2022/09/29 09:45:13;;;;;;;18.60;16.70;;;19.40;95.90;;;;;;5037456;28;20471;-76
2022/09/29 09:47:46;;;;;;;19.60;17.43;;;19.50;95.40;;;;;;5045606;28;20481;-77
2022/09/29 09:50:15;;;;;;;16.70;14.87;;;19.80;94.90;;;;;;5036992;28;20450;-76
2022/09/29 09:52:46;;;;;;;18.97;17.07;;;20.00;94.70;;;;;;5037371;28;20560;-77
2022/09/29 09:55:16;;;;;;;20.40;18.40;;;20.10;94.50;;;;;;5038933;28;20530;-76
2022/09/29 09:58:11;;;;;;;19.37;17.47;;;19.80;95.00;;;;;;5041966;28;20468;-77
2022/09/29 10:00:42;;;;;;;20.03;18.03;;;20.10;94.80;;;;;;5022724;28;20586;-77
2022/09/29 10:03:11;;;;;;;19.50;17.67;;;20.00;94.20;;;;;;5038324;28;20450;-75
2022/09/29 10:05:40;;;;;;;19.17;17.27;;;20.10;94.50;;;;;;5039040;28;20520;-74
2022/09/29 10:08:14;;;;;;;20.97;18.90;;;20.10;94.20;;;;;;5038280;28;20500;-78
2022/09/29 10:10:42;;;;;;;23.23;20.47;;;19.80;93.90;;;;;;5029920;28;20436;-75
2022/09/29 10:13:12;;;;;;;22.13;19.83;;;19.30;94.30;;;;;;5038324;28;20454;-75
2022/09/29 10:15:45;;;;;;;21.40;17.53;;;18.70;95.30;;;;;;5041312;28;20472;-74
2022/09/29 10:18:15;;;;;;;22.30;20.10;;;18.20;96.30;;;;;;5049842;28;20561;-79
2022/09/29 10:20:42;;;;;;;19.80;17.80;;;18.40;97.70;;;;;;5052657;28;20599;-75
2022/09/29 10:23:28;;;;;;;21.60;19.50;;;18.60;97.50;;;;;;5043178;28;20937;-77
2022/09/29 10:26:02;;;;;;;21.50;19.10;;;19.20;96.50;;;;;;5047403;28;20439;-76
2022/09/29 10:28:39;;;;;;;20.50;18.50;;;19.30;96.70;;;;;;5047963;28;20543;-77
2022/09/29 10:31:17;;;;;;;18.23;16.33;;;19.70;95.80;;;;;;5038340;28;20440;-77
2022/09/29 10:33:49;;;;;;;22.73;18.40;;;19.70;95.60;;;;;;5057638;28;20524;-75
2022/09/29 10:36:19;;;;;;;18.00;16.20;;;19.40;94.80;;;;;;5052390;28;20532;-76
2022/09/29 10:38:49;;;;;;;18.00;16.10;;;19.10;95.70;;;;;;5061235;28;20547;-76
2022/09/29 10:41:18;;;;;;;19.57;17.47;;;18.50;95.50;;;;;;5053272;28;20465;-74
2022/09/29 10:43:47;;;;;;;18.03;16.17;;;17.90;96.50;;;;;;5050370;28;21185;-74
2022/09/29 10:46:37;;;;;;;17.70;15.80;;;17.60;98.00;;;;;;5054490;28;20438;-77
2022/09/29 10:49:14;;;;;;;17.40;15.73;;;17.60;98.80;;;;;;5041159;28;20450;-76
2022/09/29 10:51:42;;;;;;;18.17;16.37;;;17.80;99.00;;;;;;5040530;28;20480;-76
2022/09/29 10:54:15;;;;;;;15.97;14.37;;;17.70;98.60;;;;;;5038801;28;20450;-75
2022/09/29 10:56:48;;;;;;;15.53;12.93;;;17.50;99.40;;;;;;5043076;28;21023;-78
2022/09/29 10:59:17;;;;;;;19.33;15.20;;;17.60;99.20;;;;;;5048424;28;20996;-77
2022/09/29 11:01:48;;;;;;;17.43;15.67;;;17.60;98.90;;;;;;5051434;28;20446;-76
2022/09/29 11:04:19;;;;;;;16.57;14.00;;;17.40;98.80;;;;;;5050184;28;20557;-78
2022/09/29 11:06:47;;;;;;;16.37;14.67;;;17.40;99.40;;;;;;5055941;28;20481;-76
2022/09/29 11:09:30;;;;;;;14.73;12.70;;;17.50;99.20;;;;;;5050490;28;20447;-77
2022/09/29 11:11:58;;;;;;;16.80;14.10;;;17.50;99.10;;;;;;5052651;28;20482;-77
2022/09/29 11:14:28;;;;;;;16.17;13.90;;;17.20;98.70;;;;;;5040992;28;20486;-77
2022/09/29 11:16:58;;;;;;;15.00;13.50;;;16.90;99.90;;;;;;5049293;28;20568;-77
2022/09/29 11:19:25;;;;;;;18.57;14.17;;;16.90;99.90;;;;;;5051957;28;20477;-77
2022/09/29 11:22:27;;;;;;;12.43;11.00;;;17.10;99.90;;;;;;5044170;28;20538;-77
2022/09/29 11:25:17;;;;;;;11.40;9.50;;;17.20;99.80;;;;;;5031463;28;20528;-74
2022/09/29 11:27:55;;;;;;;10.90;9.80;;;17.30;99.00;;;;;;5048266;28;20474;-78
2022/09/29 11:30:26;;;;;;;12.63;9.83;;;17.40;98.40;;;;;;5062005;28;20441;-75
2022/09/29 11:33:12;;;;;;;10.97;9.90;;;17.60;98.50;;;;;;5052096;28;20450;-75
2022/09/29 11:35:54;;;;;;;13.33;10.43;;;17.90;98.00;;;;;;5056014;28;20976;-75
2022/09/29 11:38:51;;;;;;;13.10;9.63;;;17.90;97.60;;;;;;5051430;28;20559;-77
2022/09/29 11:41:36;;;;;;;12.53;8.97;;;18.20;96.60;;;;;;5034892;28;20495;-77
2022/09/29 11:44:21;;;;;;;16.73;12.20;;;18.40;97.20;;;;;;5038846;28;20452;-76
2022/09/29 11:50:21;;;;;;;11.97;8.90;;;18.30;97.20;;;;;;5028424;28;20509;-76
2022/09/29 11:53:37;;;;;;;10.60;9.20;;;18.10;97.50;;;;;;5055882;28;20461;-75
2022/09/29 11:56:21;;;;;;;9.00;8.10;;;18.00;97.20;;;;;;5055699;28;20827;-75
2022/09/29 11:59:13;;;;;;;9.37;7.00;;;17.90;97.70;;;;;;5055513;28;20470;-74
2022/09/29 12:02:02;;;;;;;7.60;6.17;;;17.80;97.20;;;;;;5055345;28;20766;-76
2022/09/29 12:07:39;;;;;;;10.70;7.00;;;17.50;97.00;;;;;;5049803;28;20450;-78
2022/09/29 12:10:42;;;;;;;10.20;7.53;;;17.40;97.90;;;;;;5029741;28;20537;-78
2022/09/29 12:13:20;;;;;;;8.77;6.90;;;17.50;97.60;;;;;;5044802;28;20553;-77
2022/09/29 12:15:56;;;;;;;9.97;6.27;;;17.70;97.30;;;;;;5054527;28;20442;-76
2022/09/29 12:18:28;;;;;;;7.20;6.00;;;17.80;97.00;;;;;;5050961;28;20557;-77
2022/09/29 12:20:56;;;;;;;8.00;5.50;;;18.00;96.80;;;;;;5053383;28;20486;-74
2022/09/29 12:23:26;;;;;;;5.80;4.87;;;18.10;96.30;;;;;;5046491;28;20808;-76
2022/09/29 12:26:03;;;;;;;9.20;4.80;;;18.20;95.60;;;;;;5035595;28;20474;-80
2022/09/29 12:28:37;;;;;;;5.60;4.90;;;18.30;95.40;;;;;;5044382;28;20462;-74
2022/09/29 12:31:12;;;;;;;4.73;3.57;;;17.90;94.80;;;;;;5030544;28;20449;-75
2022/09/29 12:33:43;;;;;;;7.47;5.87;;;17.70;95.70;;;;;;5048887;28;20504;-74
2022/09/29 12:39:16;;;;;;;7.00;5.40;;;17.60;96.50;;;;;;5035355;28;20426;-78
2022/09/29 12:41:48;;;;;;;7.97;5.53;;;17.70;96.70;;;;;;5047419;28;20486;-76
2022/09/29 12:44:21;;;;;;;14.17;7.90;;;17.80;96.60;;;;;;5049192;28;20451;-77
2022/09/29 12:46:53;;;;;;;15.80;9.70;;;17.80;95.90;;;;;;5046097;28;20550;-74
2022/09/29 12:49:23;;;;;;;6.30;4.93;;;17.60;96.60;;;;;;5052553;28;20444;-74
2022/09/29 12:51:52;;;;;;;7.00;4.73;;;17.60;96.80;;;;;;5046499;28;20482;-75
2022/09/29 12:54:23;;;;;;;5.00;4.50;;;17.50;97.30;;;;;;5042271;28;20462;-77
2022/09/29 12:56:56;;;;;;;7.90;6.10;;;17.60;97.00;;;;;;5043996;28;20863;-75
2022/09/29 12:59:33;;;;;;;8.10;6.20;;;17.70;96.70;;;;;;5043073;28;20484;-75
2022/09/29 13:02:10;;;;;;;6.87;4.70;;;17.80;96.60;;;;;;5049028;28;20470;-75
2022/09/29 13:04:55;;;;;;;7.80;4.17;;;17.90;96.00;;;;;;5033665;28;20453;-77
2022/09/29 13:07:47;;;;;;;5.10;3.73;;;18.00;95.80;;;;;;5049561;28;20462;-77
2022/09/29 13:10:41;;;;;;;3.93;2.83;;;18.10;95.70;;;;;;5027752;28;20444;-75